createdAt,value
2022-10-28T00:01:15.727Z,102422.53
2022-10-28T00:03:44.582Z,102374.84
2022-10-28T00:06:18.132Z,102431.66
2022-10-28T00:08:45.146Z,102447.47
2022-10-28T00:11:16.304Z,102376.81
2022-10-28T00:13:44.482Z,102374.72
2022-10-28T00:16:19.530Z,102434.81
2022-10-28T00:18:46.839Z,102374.66
2022-10-28T00:21:16.977Z,102436.44
2022-10-28T00:23:43.733Z,102429.16
2022-10-28T00:26:12.800Z,102436.69
2022-10-28T00:28:51.141Z,102390.53
2022-10-28T00:31:20.229Z,102437.28
2022-10-28T00:33:46.777Z,102441.09
2022-10-28T00:36:17.271Z,102395.94
2022-10-28T00:38:45.444Z,102389.19
2022-10-28T00:41:14.412Z,102367.44
2022-10-28T00:43:50.357Z,102400.22
2022-10-28T00:46:25.151Z,102452.75
2022-10-28T00:48:57.369Z,102487.56
2022-10-28T00:51:25.527Z,102474.81
2022-10-28T00:53:54.097Z,102453.50
2022-10-28T00:56:21.827Z,102410.59
2022-10-28T00:58:49.976Z,102472.25
2022-10-28T01:01:16.409Z,102482.28
2022-10-28T01:03:42.876Z,102481.22
2022-10-28T01:06:10.424Z,102472.56
2022-10-28T01:08:36.902Z,102470.09
2022-10-28T01:11:32.550Z,102476.66
2022-10-28T01:14:04.730Z,102433.38
2022-10-28T01:16:53.053Z,102468.84
2022-10-28T01:19:37.741Z,102473.75
2022-10-28T01:25:28.016Z,102460.03
2022-10-28T01:28:09.384Z,102464.16
2022-10-28T01:30:57.001Z,102451.16
2022-10-28T01:33:31.262Z,102457.69
2022-10-28T01:36:21.795Z,102451.50
2022-10-28T01:38:50.858Z,102465.28
2022-10-28T01:41:37.777Z,102460.63
2022-10-28T01:44:31.033Z,102430.13
2022-10-28T01:47:00.391Z,102482.91
2022-10-28T01:49:40.850Z,102463.16
2022-10-28T01:52:12.897Z,102468.22
2022-10-28T01:54:42.213Z,102468.38
2022-10-28T01:57:12.080Z,102458.28
2022-10-28T01:59:39.668Z,102450.25
2022-10-28T02:02:06.066Z,102419.78
2022-10-28T02:04:32.466Z,102439.47
2022-10-28T02:07:00.737Z,102453.53
2022-10-28T02:09:29.794Z,102438.91
2022-10-28T02:12:21.089Z,102457.88
2022-10-28T02:15:02.662Z,102460.91
2022-10-28T02:17:38.581Z,102460.25
2022-10-28T02:20:12.085Z,102466.91
2022-10-28T02:23:03.358Z,102453.00
2022-10-28T02:25:35.349Z,102426.25
2022-10-28T02:30:49.773Z,102431.56
2022-10-28T02:33:23.890Z,102456.88
2022-10-28T02:35:55.956Z,102459.63
2022-10-28T02:38:31.588Z,102424.63
2022-10-28T02:41:02.778Z,102428.13
2022-10-28T02:43:32.042Z,102466.50
2022-10-28T02:46:02.271Z,102418.84
2022-10-28T02:48:33.637Z,102441.09
2022-10-28T02:51:11.681Z,102422.09
2022-10-28T02:54:10.981Z,102450.09
2022-10-28T02:56:48.325Z,102452.13
2022-10-28T02:59:14.901Z,102450.53
2022-10-28T03:01:41.410Z,102408.16
2022-10-28T03:04:08.023Z,102442.63
2022-10-28T03:06:34.447Z,102440.41
2022-10-28T03:09:00.997Z,102446.81
2022-10-28T03:11:27.379Z,102438.94
2022-10-28T03:13:53.780Z,102429.25
2022-10-28T03:16:20.192Z,102429.50
2022-10-28T03:18:46.621Z,102401.59
2022-10-28T03:21:12.960Z,102427.97
2022-10-28T03:23:39.443Z,102423.72
2022-10-28T03:26:06.032Z,102418.94
2022-10-28T03:28:32.476Z,102419.72
2022-10-28T03:30:58.836Z,102423.34
2022-10-28T03:33:25.324Z,102419.94
2022-10-28T03:35:51.872Z,102415.88
2022-10-28T03:38:18.283Z,102415.44
2022-10-28T03:40:47.824Z,102421.16
2022-10-28T03:43:14.350Z,102423.28
2022-10-28T03:45:40.775Z,102421.47
2022-10-28T03:48:07.192Z,102419.50
2022-10-28T03:50:33.658Z,102395.63
2022-10-28T03:53:00.035Z,102405.88
2022-10-28T03:55:26.495Z,102412.66
2022-10-28T03:57:53.827Z,102383.31
2022-10-28T04:00:21.368Z,102423.88
2022-10-28T04:02:51.878Z,102412.75
2022-10-28T04:05:21.905Z,102415.56
2022-10-28T04:07:48.394Z,102411.53
2022-10-28T04:10:14.861Z,102402.41
2022-10-28T04:12:41.301Z,102418.09
2022-10-28T04:15:08.039Z,102379.47
2022-10-28T04:17:34.735Z,102372.34
2022-10-28T04:20:03.354Z,102383.34
2022-10-28T04:22:29.738Z,102391.34
2022-10-28T04:24:56.125Z,102423.50
2022-10-28T04:27:22.487Z,102423.63
2022-10-28T04:29:48.857Z,102379.53
2022-10-28T04:32:15.251Z,102421.44
2022-10-28T04:34:41.671Z,102381.72
2022-10-28T04:37:08.081Z,102416.81
2022-10-28T04:39:34.480Z,102417.50
2022-10-28T04:42:00.861Z,102394.47
2022-10-28T04:44:27.272Z,102433.63
2022-10-28T04:46:55.831Z,102419.59
2022-10-28T04:49:22.257Z,102437.25
2022-10-28T04:51:48.692Z,102461.50
2022-10-28T04:54:15.149Z,102458.88
2022-10-28T04:56:41.580Z,102417.44
2022-10-28T04:59:08.070Z,102464.53
2022-10-28T05:01:34.540Z,102468.59
2022-10-28T05:04:01.014Z,102473.47
2022-10-28T05:06:30.421Z,102469.66
2022-10-28T05:08:56.895Z,102469.09
2022-10-28T05:11:23.371Z,102488.56
2022-10-28T05:13:49.800Z,102464.25
2022-10-28T05:16:16.188Z,102460.81
2022-10-28T05:18:42.619Z,102458.13
2022-10-28T05:21:09.049Z,102499.88
2022-10-28T05:23:35.505Z,102476.75
2022-10-28T05:26:02.141Z,102493.88
2022-10-28T05:28:28.555Z,102497.81
2022-10-28T05:30:55.059Z,102477.88
2022-10-28T05:33:21.747Z,102453.63
2022-10-28T05:35:48.288Z,102488.75
2022-10-28T05:38:14.987Z,102484.34
2022-10-28T05:40:41.855Z,102451.19
2022-10-28T05:43:09.908Z,102434.63
2022-10-28T05:45:36.883Z,102479.09
2022-10-28T05:48:03.448Z,102481.53
2022-10-28T05:50:29.878Z,102447.50
2022-10-28T05:52:57.488Z,102489.94
2022-10-28T05:55:25.901Z,102458.66
2022-10-28T05:57:52.835Z,102505.06
2022-10-28T06:00:22.417Z,102492.91
2022-10-28T06:02:48.793Z,102494.56
2022-10-28T06:05:15.545Z,102454.31
2022-10-28T06:07:42.609Z,102487.78
2022-10-28T06:10:10.833Z,102440.59
2022-10-28T06:12:36.141Z,102475.66
2022-10-28T06:15:03.015Z,102449.25
2022-10-28T06:17:29.517Z,102476.41
2022-10-28T06:19:55.876Z,102464.34
2022-10-28T06:22:22.291Z,102468.03
2022-10-28T06:24:48.665Z,102469.03
2022-10-28T06:27:15.050Z,102430.25
2022-10-28T06:29:41.432Z,102429.88
2022-10-28T06:32:08.625Z,102423.56
2022-10-28T06:34:35.148Z,102460.97
2022-10-28T06:37:01.557Z,102421.63
2022-10-28T06:39:28.287Z,102405.81
2022-10-28T06:41:54.716Z,102447.88
2022-10-28T06:44:21.134Z,102450.78
2022-10-28T06:46:49.049Z,102415.44
2022-10-28T06:49:15.569Z,102469.97
2022-10-28T06:51:41.974Z,102454.59
2022-10-28T06:54:08.399Z,102416.19
2022-10-28T06:56:34.794Z,102455.41
2022-10-28T06:59:01.164Z,102448.63
2022-10-28T07:01:27.744Z,102443.19
2022-10-28T07:03:54.226Z,102462.28
2022-10-28T07:06:20.714Z,102447.13
2022-10-28T07:08:47.108Z,102409.97
2022-10-28T07:11:13.777Z,102461.41
2022-10-28T07:13:40.623Z,102419.19
2022-10-28T07:16:07.528Z,102468.56
2022-10-28T07:18:33.994Z,102428.88
2022-10-28T07:21:01.248Z,102423.44
2022-10-28T07:23:28.611Z,102415.47
2022-10-28T07:25:56.331Z,102422.06
2022-10-28T07:28:24.562Z,102438.34
2022-10-28T07:30:51.036Z,102459.28
2022-10-28T07:33:17.696Z,102424.00
2022-10-28T07:35:44.109Z,102451.47
2022-10-28T07:38:11.561Z,102429.00
2022-10-28T07:40:38.151Z,102398.59
2022-10-28T07:43:04.563Z,102413.41
2022-10-28T07:45:31.017Z,102444.09
2022-10-28T07:47:57.505Z,102419.31
2022-10-28T07:50:23.943Z,102449.78
2022-10-28T07:52:50.393Z,102453.47
2022-10-28T07:55:16.849Z,102449.00
2022-10-28T07:57:43.263Z,102418.97
2022-10-28T08:00:10.829Z,102444.63
2022-10-28T08:02:37.697Z,102441.22
2022-10-28T08:05:04.588Z,102432.28
2022-10-28T08:07:32.671Z,102407.22
2022-10-28T08:10:02.478Z,102407.44
2022-10-28T08:12:28.869Z,102441.78
2022-10-28T08:14:55.326Z,102439.75
2022-10-28T08:17:21.982Z,102444.22
2022-10-28T08:19:48.395Z,102457.19
2022-10-28T08:22:14.774Z,102469.38
2022-10-28T08:24:41.152Z,102462.28
2022-10-28T08:27:07.530Z,102468.97
2022-10-28T08:29:33.935Z,102474.06
2022-10-28T08:32:00.330Z,102478.09
2022-10-28T08:34:26.773Z,102479.72
2022-10-28T08:36:53.243Z,102473.03
2022-10-28T08:39:19.635Z,102433.69
2022-10-28T08:42:09.221Z,102466.75
2022-10-28T08:44:44.503Z,102471.59
2022-10-28T08:47:32.849Z,102470.38
2022-10-28T08:50:10.230Z,102434.69
2022-10-28T08:52:39.601Z,102475.47
2022-10-28T08:55:28.341Z,102462.50
2022-10-28T08:58:18.795Z,102458.41
2022-10-28T09:00:49.973Z,102431.00
2022-10-28T09:03:19.557Z,102472.19
2022-10-28T09:05:47.766Z,102438.28
2022-10-28T09:08:22.278Z,102468.88
2022-10-28T09:10:54.604Z,102448.97
2022-10-28T09:13:27.110Z,102489.75
2022-10-28T09:16:13.631Z,102484.22
2022-10-28T09:18:58.900Z,102499.31
2022-10-28T09:21:33.228Z,102527.06
2022-10-28T09:24:11.236Z,102544.88
2022-10-28T09:26:43.937Z,102552.41
2022-10-28T09:29:44.137Z,102568.81
2022-10-28T09:32:36.946Z,102565.78
2022-10-28T09:35:10.394Z,102571.31
2022-10-28T09:37:43.161Z,102574.25
2022-10-28T09:40:19.013Z,102554.22
2022-10-28T09:43:07.000Z,102592.72
2022-10-28T09:45:40.064Z,102585.34
2022-10-28T09:48:14.047Z,102563.91
2022-10-28T09:50:40.537Z,102576.16
2022-10-28T09:53:09.713Z,102574.69
2022-10-28T09:55:36.183Z,102601.25
2022-10-28T09:58:04.893Z,102574.69
2022-10-28T10:00:31.964Z,102592.78
2022-10-28T10:02:59.248Z,102604.03
2022-10-28T10:05:27.193Z,102569.06
2022-10-28T10:08:19.853Z,102607.75
2022-10-28T10:10:55.144Z,102602.66
2022-10-28T10:13:29.017Z,102571.31
2022-10-28T10:16:15.674Z,102603.75
2022-10-28T10:18:46.130Z,102598.97
2022-10-28T10:21:12.650Z,102590.00
2022-10-28T10:26:14.348Z,102607.06
2022-10-28T10:28:45.152Z,102591.09
2022-10-28T10:31:27.210Z,102608.72
2022-10-28T10:33:56.287Z,102607.97
2022-10-28T10:36:27.011Z,102619.25
2022-10-28T10:38:55.777Z,102620.53
2022-10-28T10:41:41.740Z,102633.56
2022-10-28T10:44:20.213Z,102591.53
2022-10-28T10:47:07.125Z,102588.22
2022-10-28T10:49:35.195Z,102622.66
2022-10-28T10:52:20.456Z,102584.84
2022-10-28T10:55:01.112Z,102632.28
2022-10-28T10:57:28.181Z,102589.09
2022-10-28T10:59:56.499Z,102639.28
2022-10-28T11:02:27.752Z,102642.22
2022-10-28T11:05:04.197Z,102649.19
2022-10-28T11:07:32.031Z,102641.91
2022-10-28T11:09:58.954Z,102661.06
2022-10-28T11:12:32.021Z,102621.44
2022-10-28T11:15:00.693Z,102660.25
2022-10-28T11:17:29.385Z,102677.72
2022-10-28T11:20:23.490Z,102675.09
2022-10-28T11:22:53.752Z,102682.00
2022-10-28T11:25:44.005Z,102681.69
2022-10-28T11:28:46.287Z,102704.41
2022-10-28T11:31:38.637Z,102714.56
2022-10-28T11:34:16.963Z,102734.53
2022-10-28T11:37:16.321Z,102735.63
2022-10-28T11:39:54.669Z,102732.66
2022-10-28T11:42:27.540Z,102705.78
2022-10-28T11:45:38.133Z,102704.84
2022-10-28T11:48:39.359Z,102711.34
2022-10-28T11:51:28.053Z,102754.59
2022-10-28T11:54:08.164Z,102765.63
2022-10-28T11:56:49.674Z,102748.81
2022-10-28T11:59:31.035Z,102762.75
2022-10-28T12:02:04.692Z,102718.69
2022-10-28T12:04:31.163Z,102739.94
2022-10-28T12:07:24.737Z,102742.41
2022-10-28T12:10:16.160Z,102710.38
2022-10-28T12:12:56.768Z,102750.28
2022-10-28T12:15:51.378Z,102741.31
2022-10-28T12:18:34.048Z,102741.91
2022-10-28T12:24:05.563Z,102750.84
2022-10-28T12:26:40.843Z,102743.47
2022-10-28T12:29:18.728Z,102720.91
2022-10-28T12:31:56.548Z,102722.06
2022-10-28T12:34:32.338Z,102776.53
2022-10-28T12:37:04.640Z,102770.72
2022-10-28T12:39:41.021Z,102773.06
2022-10-28T12:42:21.002Z,102765.88
2022-10-28T12:44:52.860Z,102762.84
2022-10-28T12:47:43.376Z,102769.41
2022-10-28T12:50:25.024Z,102767.84
2022-10-28T12:53:03.626Z,102793.50
2022-10-28T12:55:56.095Z,102790.75
2022-10-28T12:58:30.342Z,102782.69
2022-10-28T13:01:19.071Z,102790.34
2022-10-28T13:06:54.267Z,102793.34
2022-10-28T13:09:46.390Z,102806.09
2022-10-28T13:12:23.059Z,102805.50
2022-10-28T13:15:15.319Z,102826.38
2022-10-28T13:17:54.141Z,102781.69
2022-10-28T13:20:23.746Z,102827.28
2022-10-28T13:23:12.121Z,102842.78
2022-10-28T13:25:48.468Z,102816.13
2022-10-28T13:28:17.711Z,102816.13
2022-10-28T13:30:54.140Z,102818.09
2022-10-28T13:33:25.048Z,102829.63
2022-10-28T13:35:51.961Z,102813.66
2022-10-28T13:38:24.353Z,102809.91
2022-10-28T13:41:00.003Z,102817.19
2022-10-28T13:44:05.642Z,102813.28
2022-10-28T13:46:56.995Z,102803.03
2022-10-28T13:49:31.586Z,102794.81
2022-10-28T13:52:07.139Z,102751.25
2022-10-28T13:54:33.484Z,102766.00
2022-10-28T13:57:09.267Z,102743.66
2022-10-28T14:00:06.987Z,102786.34
2022-10-28T14:02:48.601Z,102787.84
2022-10-28T14:05:17.842Z,102786.03
2022-10-28T14:07:56.683Z,102803.53
2022-10-28T14:10:26.780Z,102802.50
2022-10-28T14:13:03.513Z,102797.47
2022-10-28T14:15:38.257Z,102767.75
2022-10-28T14:21:07.455Z,102778.53
2022-10-28T14:23:33.803Z,102756.78
2022-10-28T14:26:03.275Z,102747.13
2022-10-28T14:28:29.678Z,102746.13
2022-10-28T14:31:08.360Z,102702.72
2022-10-28T14:33:43.806Z,102738.28
2022-10-28T14:36:19.412Z,102757.34
2022-10-28T14:39:04.064Z,102766.00
2022-10-28T14:41:42.656Z,102756.13
2022-10-28T14:44:38.465Z,102754.00
2022-10-28T14:47:07.823Z,102750.97
2022-10-28T14:49:37.945Z,102735.50
2022-10-28T14:52:16.003Z,102746.91
2022-10-28T14:54:51.137Z,102748.69
2022-10-28T14:57:18.968Z,102749.66
2022-10-28T14:59:46.375Z,102746.44
2022-10-28T15:02:24.517Z,102755.88
2022-10-28T15:05:22.573Z,102743.81
2022-10-28T15:07:49.085Z,102736.09
2022-10-28T15:10:25.738Z,102738.44
2022-10-28T15:12:54.980Z,102734.59
2022-10-28T15:15:29.528Z,102732.09
2022-10-28T15:17:56.448Z,102689.38
2022-10-28T15:20:31.861Z,102719.41
2022-10-28T15:23:16.198Z,102735.81
2022-10-28T15:25:42.590Z,102721.97
2022-10-28T15:28:11.714Z,102719.56
2022-10-28T15:30:45.808Z,102692.38
2022-10-28T15:33:39.357Z,102726.34
2022-10-28T15:36:17.555Z,102699.16
2022-10-28T15:38:49.983Z,102698.75
2022-10-28T15:41:43.478Z,102734.63
2022-10-28T15:44:26.664Z,102741.53
2022-10-28T15:46:54.096Z,102747.44
2022-10-28T15:49:33.131Z,102722.00
2022-10-28T15:52:17.914Z,102741.34
2022-10-28T15:55:19.750Z,102752.69
2022-10-28T15:57:48.845Z,102732.13
2022-10-28T16:00:20.801Z,102744.31
2022-10-28T16:02:51.374Z,102750.41
2022-10-28T16:05:33.341Z,102735.53
2022-10-28T16:08:01.877Z,102735.75
2022-10-28T16:10:33.554Z,102731.13
2022-10-28T16:13:00.829Z,102730.72
2022-10-28T16:15:27.382Z,102726.69
2022-10-28T16:17:54.092Z,102742.91
2022-10-28T16:20:27.076Z,102752.25
2022-10-28T16:22:53.587Z,102749.06
2022-10-28T16:25:22.144Z,102749.47
2022-10-28T16:27:49.765Z,102748.00
2022-10-28T16:30:16.436Z,102766.59
2022-10-28T16:32:47.447Z,102763.56
2022-10-28T16:35:18.284Z,102751.31
2022-10-28T16:37:47.350Z,102704.81
2022-10-28T16:40:45.530Z,102746.50
2022-10-28T16:43:03.303Z,102735.31
2022-10-28T16:45:29.704Z,102746.47
2022-10-28T16:47:56.453Z,102747.53
2022-10-28T16:50:23.085Z,102714.91
2022-10-28T16:52:49.541Z,102741.09
2022-10-28T16:55:16.795Z,102699.50
2022-10-28T16:57:43.218Z,102740.94
2022-10-28T17:00:13.568Z,102739.75
2022-10-28T17:02:40.306Z,102699.75
2022-10-28T17:05:13.879Z,102717.63
2022-10-28T17:07:40.323Z,102731.88
2022-10-28T17:10:06.994Z,102726.38
2022-10-28T17:12:33.445Z,102714.81
2022-10-28T17:14:59.872Z,102705.88
2022-10-28T17:17:26.270Z,102729.03
2022-10-28T17:19:52.736Z,102742.88
2022-10-28T17:22:19.106Z,102711.19
2022-10-28T17:24:45.535Z,102728.88
2022-10-28T17:27:12.318Z,102745.31
2022-10-28T17:29:38.983Z,102714.66
2022-10-28T17:32:06.357Z,102750.06
2022-10-28T17:34:32.794Z,102728.69
2022-10-28T17:36:59.212Z,102695.97
2022-10-28T17:39:26.638Z,102699.84
2022-10-28T17:41:53.546Z,102725.03
2022-10-28T17:44:19.996Z,102689.28
2022-10-28T17:46:48.950Z,102718.13
2022-10-28T17:49:15.455Z,102677.28
2022-10-28T17:51:41.853Z,102671.19
2022-10-28T17:54:08.437Z,102699.84
2022-10-28T17:56:35.635Z,102691.09
2022-10-28T17:59:02.838Z,102661.00
2022-10-28T18:01:30.898Z,102691.44
2022-10-28T18:03:57.705Z,102652.41
2022-10-28T18:06:24.475Z,102691.06
2022-10-28T18:11:22.267Z,102675.94
2022-10-28T18:13:49.866Z,102664.09
2022-10-28T18:16:21.771Z,102670.41
2022-10-28T18:18:48.192Z,102690.47
2022-10-28T18:21:14.706Z,102689.50
2022-10-28T18:23:41.414Z,102682.22
2022-10-28T18:26:11.282Z,102662.88
2022-10-28T18:28:38.170Z,102634.63
2022-10-28T18:31:12.751Z,102666.72
2022-10-28T18:33:39.177Z,102637.03
2022-10-28T18:36:09.959Z,102630.84
2022-10-28T18:38:36.545Z,102669.53
2022-10-28T18:41:03.211Z,102679.88
2022-10-28T18:43:29.694Z,102700.75
2022-10-28T18:46:00.863Z,102703.00
2022-10-28T18:48:27.282Z,102705.25
2022-10-28T18:50:58.030Z,102674.03
2022-10-28T18:53:25.177Z,102706.34
2022-10-28T18:55:51.985Z,102666.31
2022-10-28T18:58:18.445Z,102694.19
2022-10-28T19:00:44.895Z,102701.78
2022-10-28T19:03:22.855Z,102701.94
2022-10-28T19:05:49.418Z,102701.69
2022-10-28T19:08:15.920Z,102729.34
2022-10-28T19:10:42.321Z,102731.97
2022-10-28T19:13:08.721Z,102694.50
2022-10-28T19:15:35.169Z,102738.28
2022-10-28T19:18:01.555Z,102732.09
2022-10-28T19:20:28.005Z,102692.22
2022-10-28T19:22:54.950Z,102731.38
2022-10-28T19:25:21.667Z,102755.25
2022-10-28T19:27:48.078Z,102739.72
2022-10-28T19:30:14.566Z,102762.47
2022-10-28T19:32:40.975Z,102777.50
2022-10-28T19:35:07.739Z,102794.38
2022-10-28T19:37:34.132Z,102792.78
2022-10-28T19:40:00.549Z,102756.59
2022-10-28T19:42:27.115Z,102792.34
2022-10-28T19:44:53.507Z,102795.81
2022-10-28T19:47:19.890Z,102792.94
2022-10-28T19:49:46.342Z,102813.25
2022-10-28T19:52:12.739Z,102838.75
2022-10-28T19:54:39.133Z,102846.00
2022-10-28T19:57:05.563Z,102841.47
2022-10-28T19:59:32.057Z,102870.84
2022-10-28T20:01:58.465Z,102886.97
2022-10-28T20:04:25.058Z,102931.59
2022-10-28T20:06:51.447Z,102955.38
2022-10-28T20:09:18.075Z,102971.59
2022-10-28T20:11:44.548Z,103036.88
2022-10-28T20:14:12.392Z,103046.84
2022-10-28T20:16:40.569Z,103098.59
2022-10-28T20:19:07.001Z,103142.31
2022-10-28T20:21:34.480Z,103183.56
2022-10-28T20:24:01.530Z,103238.38
2022-10-28T20:26:30.133Z,103288.47
2022-10-28T20:28:58.042Z,103271.91
2022-10-28T20:31:27.172Z,103331.84
2022-10-28T20:33:58.458Z,103396.91
2022-10-28T20:36:29.123Z,103386.56
2022-10-28T20:38:57.588Z,103462.16
2022-10-28T20:41:25.457Z,103487.16
2022-10-28T20:43:53.139Z,103520.84
2022-10-28T20:46:20.859Z,103548.94
2022-10-28T20:48:48.019Z,103588.91
2022-10-28T20:51:15.129Z,103618.00
2022-10-28T20:53:42.022Z,103612.06
2022-10-28T20:56:15.586Z,103659.78
2022-10-28T20:58:42.008Z,103671.09
2022-10-28T21:01:32.469Z,103642.06
2022-10-28T21:04:02.523Z,103694.28
2022-10-28T21:06:29.392Z,103701.16
2022-10-28T21:08:56.624Z,103755.28
2022-10-28T21:11:24.373Z,103785.50
2022-10-28T21:13:52.942Z,103827.56
2022-10-28T21:16:20.136Z,103861.91
2022-10-28T21:18:47.339Z,103903.28
2022-10-28T21:21:14.058Z,103944.91
2022-10-28T21:23:40.522Z,103971.13
2022-10-28T21:26:08.031Z,103911.25
2022-10-28T21:28:35.451Z,103932.66
2022-10-28T21:31:04.352Z,103931.06
2022-10-28T21:33:31.142Z,103932.81
2022-10-28T21:35:59.032Z,103926.19
2022-10-28T21:38:26.736Z,103950.59
2022-10-28T21:41:00.004Z,103955.72
2022-10-28T21:43:28.060Z,103927.63
2022-10-28T21:45:54.502Z,103916.97
2022-10-28T21:48:20.946Z,103950.16
2022-10-28T21:50:55.259Z,103929.75
2022-10-28T21:53:22.073Z,103977.50
2022-10-28T21:55:50.023Z,104003.66
2022-10-28T21:58:18.670Z,103962.78
2022-10-28T22:00:45.939Z,103999.28
2022-10-28T22:03:13.463Z,104015.75
2022-10-28T22:05:39.914Z,103974.50
2022-10-28T22:08:06.503Z,104012.34
2022-10-28T22:10:32.922Z,104044.44
2022-10-28T22:12:59.360Z,104007.69
2022-10-28T22:15:25.742Z,104043.16
2022-10-28T22:17:52.299Z,104053.53
2022-10-28T22:20:18.996Z,104032.94
2022-10-28T22:22:45.448Z,104063.19
2022-10-28T22:25:11.876Z,104025.31
2022-10-28T22:27:38.432Z,104040.44
2022-10-28T22:30:05.160Z,104023.06
2022-10-28T22:32:31.561Z,103983.59
2022-10-28T22:34:58.014Z,103984.84
2022-10-28T22:37:24.388Z,103951.75
2022-10-28T22:39:50.888Z,103962.88
2022-10-28T22:42:17.300Z,103978.41
2022-10-28T22:44:43.707Z,103947.56
2022-10-28T22:47:10.164Z,103977.97
2022-10-28T22:49:36.553Z,103979.69
2022-10-28T22:52:02.942Z,103942.66
2022-10-28T22:54:29.338Z,103976.47
2022-10-28T22:56:55.772Z,103981.06
2022-10-28T22:59:22.162Z,103935.53
2022-10-28T23:01:48.758Z,103957.59
2022-10-28T23:04:15.426Z,103961.44
2022-10-28T23:06:41.811Z,103960.84
2022-10-28T23:09:08.234Z,103909.63
2022-10-28T23:11:34.659Z,103920.66
2022-10-28T23:14:01.069Z,103911.31
2022-10-28T23:16:27.528Z,103887.47
2022-10-28T23:18:54.040Z,103877.41
2022-10-28T23:21:25.420Z,103861.88
2022-10-28T23:23:56.918Z,103848.31
2022-10-28T23:26:24.429Z,103849.28
2022-10-28T23:28:52.782Z,103824.13
2022-10-28T23:31:19.875Z,103863.06
2022-10-28T23:33:46.612Z,103855.06
2022-10-28T23:36:14.559Z,103843.19
2022-10-28T23:38:41.174Z,103838.47
2022-10-28T23:41:10.244Z,103824.53
2022-10-28T23:43:36.995Z,103840.13
2022-10-28T23:46:03.852Z,103820.44
2022-10-28T23:48:30.291Z,103872.03
2022-10-28T23:50:57.305Z,103910.50
2022-10-28T23:53:24.343Z,103931.56
2022-10-28T23:55:51.635Z,103944.94
2022-10-28T23:58:19.955Z,103933.63
